createdAt,value
2022-10-23T00:02:21.862Z,9.49
2022-10-23T00:04:54.472Z,9.51
2022-10-23T00:07:25.588Z,9.53
2022-10-23T00:09:56.714Z,9.54
2022-10-23T00:12:28.239Z,9.55
2022-10-23T00:14:59.447Z,9.57
2022-10-23T00:17:28.726Z,9.59
2022-10-23T00:20:00.041Z,9.60
2022-10-23T00:22:31.017Z,9.63
2022-10-23T00:25:03.278Z,9.65
2022-10-23T00:27:34.321Z,9.66
2022-10-23T00:30:07.090Z,9.67
2022-10-23T00:32:38.085Z,9.68
2022-10-23T00:35:10.245Z,9.69
2022-10-23T00:37:41.976Z,9.71
2022-10-23T00:40:15.022Z,9.73
2022-10-23T00:42:45.990Z,9.75
2022-10-23T00:45:20.575Z,9.76
2022-10-23T00:47:51.752Z,9.75
2022-10-23T00:50:25.654Z,9.75
2022-10-23T00:53:00.591Z,9.76
2022-10-23T00:55:33.425Z,9.78
2022-10-23T00:58:04.322Z,9.79
2022-10-23T01:00:42.735Z,9.81
2022-10-23T01:03:14.778Z,9.77
2022-10-23T01:05:50.841Z,9.77
2022-10-23T01:08:29.330Z,9.77
2022-10-23T01:11:08.073Z,9.77
2022-10-23T01:13:45.672Z,9.77
2022-10-23T01:16:24.807Z,9.77
2022-10-23T01:19:05.813Z,9.78
2022-10-23T01:21:50.646Z,9.78
2022-10-23T01:24:31.993Z,9.81
2022-10-23T01:27:21.309Z,9.81
2022-10-23T01:30:01.176Z,9.82
2022-10-23T01:32:36.553Z,9.83
2022-10-23T01:35:13.267Z,9.83
2022-10-23T01:37:47.422Z,9.83
2022-10-23T01:40:25.774Z,9.84
2022-10-23T01:43:00.718Z,9.84
2022-10-23T01:45:37.354Z,9.85
2022-10-23T01:48:14.076Z,9.86
2022-10-23T01:50:46.599Z,9.88
2022-10-23T01:53:18.594Z,9.89
2022-10-23T01:55:50.877Z,9.90
2022-10-23T01:58:23.416Z,9.91
2022-10-23T02:00:58.017Z,9.89
2022-10-23T02:03:31.756Z,9.89
2022-10-23T02:06:03.139Z,9.89
2022-10-23T02:08:34.762Z,9.88
2022-10-23T02:11:11.298Z,9.89
2022-10-23T02:13:50.556Z,9.91
2022-10-23T02:16:30.603Z,9.93
2022-10-23T02:19:14.137Z,9.95
2022-10-23T02:21:53.245Z,9.95
2022-10-23T02:24:30.131Z,9.96
2022-10-23T02:27:05.228Z,9.97
2022-10-23T02:29:41.025Z,9.96
2022-10-23T02:32:13.742Z,9.98
2022-10-23T02:34:45.117Z,9.99
2022-10-23T02:37:16.089Z,10.00
2022-10-23T02:39:45.830Z,10.01
2022-10-23T02:42:22.326Z,9.99
2022-10-23T02:45:03.439Z,10.00
2022-10-23T02:47:49.984Z,10.00
2022-10-23T02:50:30.093Z,10.00
2022-10-23T02:53:07.516Z,9.99
2022-10-23T02:55:50.000Z,10.00
2022-10-23T02:58:28.643Z,10.02
2022-10-23T03:01:05.723Z,10.03
2022-10-23T03:03:37.192Z,10.03
2022-10-23T03:06:08.924Z,10.00
2022-10-23T03:08:56.108Z,9.96
2022-10-23T03:11:27.512Z,9.94
2022-10-23T03:13:58.629Z,9.94
2022-10-23T03:16:29.638Z,9.96
2022-10-23T03:19:00.488Z,9.95
2022-10-23T03:21:29.803Z,9.95
2022-10-23T03:24:00.689Z,9.93
2022-10-23T03:26:30.024Z,9.93
2022-10-23T03:29:00.850Z,9.94
2022-10-23T03:31:32.004Z,9.96
2022-10-23T03:34:04.042Z,9.98
2022-10-23T03:36:37.608Z,9.98
2022-10-23T03:39:08.595Z,9.97
2022-10-23T03:41:39.721Z,10.00
2022-10-23T03:44:10.635Z,10.00
2022-10-23T03:46:41.751Z,9.99
2022-10-23T03:49:11.226Z,9.97
2022-10-23T03:51:42.407Z,9.93
2022-10-23T03:54:13.404Z,9.93
2022-10-23T03:56:47.036Z,9.94
2022-10-23T03:59:18.124Z,9.95
2022-10-23T04:01:49.307Z,9.98
2022-10-23T04:04:20.546Z,10.00
2022-10-23T04:06:49.877Z,10.02
2022-10-23T04:09:19.493Z,10.01
2022-10-23T04:11:50.418Z,10.01
2022-10-23T04:14:21.116Z,10.03
2022-10-23T04:16:50.455Z,10.06
2022-10-23T04:19:21.484Z,10.06
2022-10-23T04:21:52.589Z,10.09
2022-10-23T04:24:21.922Z,10.12
2022-10-23T04:26:53.216Z,10.11
2022-10-23T04:29:24.739Z,10.12
2022-10-23T04:31:55.698Z,10.13
2022-10-23T04:34:26.759Z,10.14
2022-10-23T04:36:57.712Z,10.14
2022-10-23T04:39:28.648Z,10.15
2022-10-23T04:41:59.773Z,10.15
2022-10-23T04:44:30.621Z,10.16
2022-10-23T04:47:01.451Z,10.17
2022-10-23T04:49:32.734Z,10.19
2022-10-23T04:52:03.878Z,10.17
2022-10-23T04:54:39.925Z,10.16
2022-10-23T04:57:10.845Z,10.14
2022-10-23T04:59:40.284Z,10.09
2022-10-23T05:02:09.887Z,10.05
2022-10-23T05:04:40.826Z,10.04
2022-10-23T05:07:11.849Z,10.05
2022-10-23T05:09:41.152Z,10.06
2022-10-23T05:12:11.980Z,10.06
2022-10-23T05:14:42.849Z,10.07
2022-10-23T05:17:17.436Z,10.07
2022-10-23T05:19:54.181Z,10.09
2022-10-23T05:22:28.042Z,10.12
2022-10-23T05:25:02.039Z,10.13
2022-10-23T05:27:33.716Z,10.16
2022-10-23T05:30:05.435Z,10.18
2022-10-23T05:32:37.169Z,10.20
2022-10-23T05:35:12.581Z,10.23
2022-10-23T05:37:46.715Z,10.22
2022-10-23T05:40:18.069Z,10.26
2022-10-23T05:42:49.261Z,10.28
2022-10-23T05:45:18.562Z,10.30
2022-10-23T05:47:50.282Z,10.26
2022-10-23T05:50:21.214Z,10.26
2022-10-23T05:52:52.059Z,10.28
2022-10-23T05:55:22.835Z,10.32
2022-10-23T05:57:53.733Z,10.34
2022-10-23T06:00:23.376Z,10.34
2022-10-23T06:02:52.617Z,10.32
2022-10-23T06:05:23.606Z,10.32
2022-10-23T06:07:58.050Z,10.34
2022-10-23T06:10:29.484Z,10.37
2022-10-23T06:13:00.502Z,10.39
2022-10-23T06:15:31.835Z,10.42
2022-10-23T06:18:04.953Z,10.43
2022-10-23T06:20:38.425Z,10.46
2022-10-23T06:23:09.691Z,10.48
2022-10-23T06:25:40.870Z,10.50
2022-10-23T06:28:10.121Z,10.52
2022-10-23T06:30:42.836Z,10.53
2022-10-23T06:33:14.045Z,10.56
2022-10-23T06:35:44.135Z,10.58
2022-10-23T06:38:15.357Z,10.58
2022-10-23T06:40:47.569Z,10.62
2022-10-23T06:43:18.435Z,10.66
2022-10-23T06:45:47.627Z,10.70
2022-10-23T06:48:18.958Z,10.72
2022-10-23T06:50:49.877Z,10.75
2022-10-23T06:53:20.731Z,10.78
2022-10-23T06:55:52.891Z,10.82
2022-10-23T06:58:26.527Z,10.84
2022-10-23T07:01:01.012Z,10.87
2022-10-23T07:03:32.553Z,10.87
2022-10-23T07:06:05.174Z,10.87
2022-10-23T07:08:36.567Z,10.88
2022-10-23T07:11:11.744Z,10.89
2022-10-23T07:13:44.604Z,10.94
2022-10-23T07:16:18.014Z,11.00
2022-10-23T07:18:50.766Z,11.03
2022-10-23T07:21:22.345Z,11.07
2022-10-23T07:23:53.293Z,11.10
2022-10-23T07:26:24.475Z,11.13
2022-10-23T07:28:56.102Z,11.19
2022-10-23T07:31:28.376Z,11.22
2022-10-23T07:33:59.429Z,11.25
2022-10-23T07:36:30.543Z,11.28
2022-10-23T07:39:01.441Z,11.28
2022-10-23T07:41:32.821Z,11.35
2022-10-23T07:44:03.933Z,11.39
2022-10-23T07:46:35.001Z,11.43
2022-10-23T07:49:04.335Z,11.46
2022-10-23T07:51:35.212Z,11.47
2022-10-23T07:54:06.385Z,11.50
2022-10-23T07:56:37.409Z,11.55
2022-10-23T07:59:08.482Z,11.59
2022-10-23T08:01:40.392Z,11.61
2022-10-23T08:04:12.320Z,11.64
2022-10-23T08:06:43.168Z,11.69
2022-10-23T08:09:14.271Z,11.71
2022-10-23T08:11:45.511Z,11.73
2022-10-23T08:14:16.859Z,11.74
2022-10-23T08:16:47.852Z,11.78
2022-10-23T08:19:19.039Z,11.80
2022-10-23T08:21:54.728Z,11.82
2022-10-23T08:24:26.368Z,11.83
2022-10-23T08:26:58.663Z,11.85
2022-10-23T08:29:29.696Z,11.87
2022-10-23T08:32:00.620Z,11.90
2022-10-23T08:34:31.885Z,11.94
2022-10-23T08:37:02.984Z,11.97
2022-10-23T08:39:33.978Z,12.01
2022-10-23T08:42:05.100Z,12.04
2022-10-23T08:44:41.319Z,12.06
2022-10-23T08:47:16.999Z,12.06
2022-10-23T08:49:52.919Z,12.07
2022-10-23T08:52:30.025Z,12.10
2022-10-23T08:55:14.099Z,12.14
2022-10-23T08:57:51.269Z,12.21
2022-10-23T09:00:22.414Z,12.25
2022-10-23T09:02:55.226Z,12.28
2022-10-23T09:05:31.947Z,12.33
2022-10-23T09:08:17.546Z,12.39
2022-10-23T09:10:57.702Z,12.43
2022-10-23T09:13:48.534Z,12.46
2022-10-23T09:16:28.291Z,12.48
2022-10-23T09:19:00.136Z,12.49
2022-10-23T09:21:31.599Z,12.51
2022-10-23T09:24:03.100Z,12.53
2022-10-23T09:26:33.997Z,12.54
2022-10-23T09:29:24.256Z,12.54
2022-10-23T09:31:57.508Z,12.53
2022-10-23T09:34:30.150Z,12.55
2022-10-23T09:37:03.042Z,12.55
2022-10-23T09:39:36.229Z,12.51
2022-10-23T09:42:22.944Z,12.49
2022-10-23T09:44:57.546Z,12.47
2022-10-23T09:47:29.032Z,12.50
2022-10-23T09:50:00.698Z,12.56
2022-10-23T09:52:36.729Z,12.61
2022-10-23T09:55:23.274Z,12.61
2022-10-23T09:57:56.472Z,12.61
2022-10-23T10:00:28.739Z,12.64
2022-10-23T10:03:01.884Z,12.67
2022-10-23T10:05:35.677Z,12.68
2022-10-23T10:08:14.867Z,12.68
2022-10-23T10:10:50.624Z,12.68
2022-10-23T10:13:37.274Z,12.71
2022-10-23T10:16:12.733Z,12.77
2022-10-23T10:18:48.864Z,12.83
2022-10-23T10:21:25.781Z,12.86
2022-10-23T10:24:01.579Z,12.91
2022-10-23T10:26:42.250Z,12.97
2022-10-23T10:29:25.628Z,13.03
2022-10-23T10:32:00.284Z,13.11
2022-10-23T10:34:42.494Z,13.16
2022-10-23T10:37:26.896Z,13.22
2022-10-23T10:40:03.132Z,13.28
2022-10-23T10:42:58.730Z,13.33
2022-10-23T10:45:32.499Z,13.36
2022-10-23T10:48:16.244Z,13.38
2022-10-23T10:50:52.761Z,13.42
2022-10-23T10:53:32.384Z,13.51
2022-10-23T10:56:05.292Z,13.60
2022-10-23T10:58:43.104Z,13.67
2022-10-23T11:01:26.718Z,13.73
2022-10-23T11:04:05.241Z,13.79
2022-10-23T11:06:38.991Z,13.87
2022-10-23T11:09:20.591Z,13.96
2022-10-23T11:11:52.790Z,14.09
2022-10-23T11:14:25.356Z,14.16
2022-10-23T11:17:02.746Z,14.23
2022-10-23T11:19:38.671Z,14.25
2022-10-23T11:22:19.766Z,14.26
2022-10-23T11:25:12.317Z,14.27
2022-10-23T11:28:02.831Z,14.27
2022-10-23T11:30:44.288Z,14.32
2022-10-23T11:33:55.746Z,14.42
2022-10-23T11:36:44.114Z,14.50
2022-10-23T11:39:23.247Z,14.52
2022-10-23T11:41:57.169Z,14.51
2022-10-23T11:44:46.197Z,14.49
2022-10-23T11:47:37.968Z,14.46
2022-10-23T11:50:25.829Z,14.43
2022-10-23T11:53:24.160Z,14.40
2022-10-23T11:56:05.411Z,14.34
2022-10-23T11:58:49.876Z,14.28
2022-10-23T12:01:30.306Z,14.26
2022-10-23T12:04:04.941Z,14.26
2022-10-23T12:06:42.782Z,14.25
2022-10-23T12:09:28.338Z,14.23
2022-10-23T12:12:16.310Z,14.19
2022-10-23T12:14:49.090Z,14.11
2022-10-23T12:17:35.886Z,14.09
2022-10-23T12:20:26.953Z,13.97
2022-10-23T12:23:16.225Z,13.83
2022-10-23T12:29:29.557Z,13.70
2022-10-23T12:32:08.975Z,13.61
2022-10-23T12:34:58.473Z,13.55
2022-10-23T12:37:46.799Z,13.52
2022-10-23T12:40:18.064Z,13.49
2022-10-23T12:42:56.378Z,13.52
2022-10-23T12:45:29.980Z,13.54
2022-10-23T12:48:01.037Z,13.54
2022-10-23T12:50:34.350Z,13.57
2022-10-23T12:53:08.800Z,13.61
2022-10-23T12:55:54.649Z,13.60
2022-10-23T12:58:30.151Z,13.58
2022-10-23T13:01:02.978Z,13.57
2022-10-23T13:03:36.847Z,13.58
2022-10-23T13:06:12.696Z,13.58
2022-10-23T13:08:55.178Z,13.58
2022-10-23T13:11:30.988Z,13.58
